sensor_id;sensor_type;location;lat;lon;timestamp;temperature;humidity
11005;DHT22;5555;59.622;16.556;2023-07-09T00:01:53;14.80;99.90
11005;DHT22;5555;59.622;16.556;2023-07-09T00:04:19;14.70;99.90
11005;DHT22;5555;59.622;16.556;2023-07-09T00:06:45;14.70;99.90
11005;DHT22;5555;59.622;16.556;2023-07-09T00:09:15;14.70;99.90
11005;DHT22;5555;59.622;16.556;2023-07-09T00:11:42;14.80;99.90
11005;DHT22;5555;59.622;16.556;2023-07-09T00:14:10;14.80;99.90
11005;DHT22;5555;59.622;16.556;2023-07-09T00:16:36;14.80;99.90
11005;DHT22;5555;59.622;16.556;2023-07-09T00:19:03;14.80;99.90
11005;DHT22;5555;59.622;16.556;2023-07-09T00:21:28;14.70;99.90
11005;DHT22;5555;59.622;16.556;2023-07-09T00:24:00;14.70;99.90
11005;DHT22;5555;59.622;16.556;2023-07-09T00:26:30;14.60;99.90
11005;DHT22;5555;59.622;16.556;2023-07-09T00:28:58;14.70;99.90
11005;DHT22;5555;59.622;16.556;2023-07-09T00:31:24;14.60;99.90
11005;DHT22;5555;59.622;16.556;2023-07-09T00:33:50;14.50;99.90
11005;DHT22;5555;59.622;16.556;2023-07-09T00:36:30;14.40;99.90
11005;DHT22;5555;59.622;16.556;2023-07-09T00:39:00;14.50;99.90
11005;DHT22;5555;59.622;16.556;2023-07-09T00:41:32;14.50;99.90
11005;DHT22;5555;59.622;16.556;2023-07-09T00:49:29;14.40;99.90
11005;DHT22;5555;59.622;16.556;2023-07-09T00:51:57;14.40;99.90
11005;DHT22;5555;59.622;16.556;2023-07-09T00:54:31;14.40;99.90
11005;DHT22;5555;59.622;16.556;2023-07-09T00:57:02;14.30;99.90
11005;DHT22;5555;59.622;16.556;2023-07-09T00:59:32;14.20;99.90
11005;DHT22;5555;59.622;16.556;2023-07-09T01:01:58;14.20;99.90
11005;DHT22;5555;59.622;16.556;2023-07-09T01:04:26;14.20;99.90
11005;DHT22;5555;59.622;16.556;2023-07-09T01:06:54;14.20;99.90
11005;DHT22;5555;59.622;16.556;2023-07-09T01:09:21;14.10;99.90
11005;DHT22;5555;59.622;16.556;2023-07-09T01:11:47;14.10;99.90
11005;DHT22;5555;59.622;16.556;2023-07-09T01:14:15;14.00;99.90
11005;DHT22;5555;59.622;16.556;2023-07-09T01:16:49;14.00;99.90
11005;DHT22;5555;59.622;16.556;2023-07-09T01:19:21;14.00;99.90
11005;DHT22;5555;59.622;16.556;2023-07-09T01:21:49;14.10;99.90
11005;DHT22;5555;59.622;16.556;2023-07-09T01:27:14;14.00;99.90
11005;DHT22;5555;59.622;16.556;2023-07-09T01:29:41;14.00;99.90
11005;DHT22;5555;59.622;16.556;2023-07-09T01:32:07;13.90;99.90
11005;DHT22;5555;59.622;16.556;2023-07-09T01:34:33;13.90;99.90
11005;DHT22;5555;59.622;16.556;2023-07-09T01:36:59;14.00;99.90
11005;DHT22;5555;59.622;16.556;2023-07-09T01:39:27;14.00;99.90
11005;DHT22;5555;59.622;16.556;2023-07-09T01:41:56;13.90;99.90
11005;DHT22;5555;59.622;16.556;2023-07-09T01:44:22;13.90;99.90
11005;DHT22;5555;59.622;16.556;2023-07-09T01:46:48;13.90;99.90
11005;DHT22;5555;59.622;16.556;2023-07-09T01:49:14;13.90;99.90
11005;DHT22;5555;59.622;16.556;2023-07-09T01:51:40;13.80;99.90
11005;DHT22;5555;59.622;16.556;2023-07-09T01:54:06;13.80;99.90
11005;DHT22;5555;59.622;16.556;2023-07-09T01:56:32;13.80;99.90
11005;DHT22;5555;59.622;16.556;2023-07-09T01:58:57;13.70;99.90
11005;DHT22;5555;59.622;16.556;2023-07-09T02:01:30;13.70;99.90
11005;DHT22;5555;59.622;16.556;2023-07-09T02:03:59;13.70;99.90
11005;DHT22;5555;59.622;16.556;2023-07-09T02:06:24;13.70;99.90
11005;DHT22;5555;59.622;16.556;2023-07-09T02:08:50;13.70;99.90
11005;DHT22;5555;59.622;16.556;2023-07-09T02:11:16;13.70;99.90
11005;DHT22;5555;59.622;16.556;2023-07-09T02:13:42;13.70;99.90
11005;DHT22;5555;59.622;16.556;2023-07-09T02:16:07;13.70;99.90
11005;DHT22;5555;59.622;16.556;2023-07-09T02:18:34;13.70;99.90
11005;DHT22;5555;59.622;16.556;2023-07-09T02:21:00;13.70;99.90
11005;DHT22;5555;59.622;16.556;2023-07-09T02:23:27;13.70;99.90
11005;DHT22;5555;59.622;16.556;2023-07-09T02:25:53;13.70;99.90
11005;DHT22;5555;59.622;16.556;2023-07-09T02:28:19;13.70;99.90
11005;DHT22;5555;59.622;16.556;2023-07-09T02:30:45;13.70;99.90
11005;DHT22;5555;59.622;16.556;2023-07-09T02:33:10;13.70;99.90
11005;DHT22;5555;59.622;16.556;2023-07-09T02:35:36;13.70;99.90
11005;DHT22;5555;59.622;16.556;2023-07-09T02:38:03;13.70;99.90
11005;DHT22;5555;59.622;16.556;2023-07-09T02:40:29;13.70;99.90
11005;DHT22;5555;59.622;16.556;2023-07-09T02:42:54;13.70;99.90
11005;DHT22;5555;59.622;16.556;2023-07-09T02:45:20;13.70;99.90
11005;DHT22;5555;59.622;16.556;2023-07-09T02:47:46;13.70;99.90
11005;DHT22;5555;59.622;16.556;2023-07-09T02:50:12;13.80;99.90
11005;DHT22;5555;59.622;16.556;2023-07-09T02:52:37;13.70;99.90
11005;DHT22;5555;59.622;16.556;2023-07-09T02:55:04;13.70;99.90
11005;DHT22;5555;59.622;16.556;2023-07-09T02:57:30;13.80;99.90
11005;DHT22;5555;59.622;16.556;2023-07-09T02:59:56;13.80;99.90
11005;DHT22;5555;59.622;16.556;2023-07-09T03:02:21;13.80;99.90
11005;DHT22;5555;59.622;16.556;2023-07-09T03:04:47;13.80;99.90
11005;DHT22;5555;59.622;16.556;2023-07-09T03:07:13;13.80;99.90
11005;DHT22;5555;59.622;16.556;2023-07-09T03:09:38;13.80;99.90
11005;DHT22;5555;59.622;16.556;2023-07-09T03:12:04;13.90;99.90
11005;DHT22;5555;59.622;16.556;2023-07-09T03:14:30;13.90;99.90
11005;DHT22;5555;59.622;16.556;2023-07-09T03:16:56;14.00;99.90
11005;DHT22;5555;59.622;16.556;2023-07-09T03:19:21;14.00;99.90
11005;DHT22;5555;59.622;16.556;2023-07-09T03:21:47;14.10;99.90
11005;DHT22;5555;59.622;16.556;2023-07-09T03:24:13;14.20;99.90
11005;DHT22;5555;59.622;16.556;2023-07-09T03:26:45;14.30;99.90
11005;DHT22;5555;59.622;16.556;2023-07-09T03:29:11;14.30;99.90
11005;DHT22;5555;59.622;16.556;2023-07-09T03:31:36;14.40;99.90
11005;DHT22;5555;59.622;16.556;2023-07-09T03:34:02;14.40;99.90
11005;DHT22;5555;59.622;16.556;2023-07-09T03:36:28;14.50;99.90
11005;DHT22;5555;59.622;16.556;2023-07-09T03:38:54;14.50;99.90
11005;DHT22;5555;59.622;16.556;2023-07-09T03:41:19;14.60;99.90
11005;DHT22;5555;59.622;16.556;2023-07-09T03:43:45;14.60;99.90
11005;DHT22;5555;59.622;16.556;2023-07-09T03:46:12;14.70;99.90
11005;DHT22;5555;59.622;16.556;2023-07-09T03:48:38;14.80;99.90
11005;DHT22;5555;59.622;16.556;2023-07-09T03:51:04;14.80;99.90
11005;DHT22;5555;59.622;16.556;2023-07-09T03:53:29;14.90;99.90
11005;DHT22;5555;59.622;16.556;2023-07-09T03:55:55;14.90;99.90
11005;DHT22;5555;59.622;16.556;2023-07-09T03:58:23;15.00;99.90
11005;DHT22;5555;59.622;16.556;2023-07-09T04:00:48;15.20;99.90
11005;DHT22;5555;59.622;16.556;2023-07-09T04:03:14;15.20;99.90
11005;DHT22;5555;59.622;16.556;2023-07-09T04:05:40;15.30;99.90
11005;DHT22;5555;59.622;16.556;2023-07-09T04:08:05;15.40;99.90
11005;DHT22;5555;59.622;16.556;2023-07-09T04:10:31;15.50;99.90
11005;DHT22;5555;59.622;16.556;2023-07-09T04:12:57;15.60;99.90
11005;DHT22;5555;59.622;16.556;2023-07-09T04:15:22;15.70;99.90
11005;DHT22;5555;59.622;16.556;2023-07-09T04:17:48;15.70;99.90
11005;DHT22;5555;59.622;16.556;2023-07-09T04:20:14;15.80;99.90
11005;DHT22;5555;59.622;16.556;2023-07-09T04:22:39;15.90;99.90
11005;DHT22;5555;59.622;16.556;2023-07-09T04:25:06;16.10;99.90
11005;DHT22;5555;59.622;16.556;2023-07-09T04:27:35;16.20;99.90
11005;DHT22;5555;59.622;16.556;2023-07-09T04:30:01;16.30;99.90
11005;DHT22;5555;59.622;16.556;2023-07-09T04:32:28;16.40;99.90
11005;DHT22;5555;59.622;16.556;2023-07-09T04:34:53;16.50;99.90
11005;DHT22;5555;59.622;16.556;2023-07-09T04:37:19;16.60;99.90
11005;DHT22;5555;59.622;16.556;2023-07-09T04:39:45;16.50;99.90
11005;DHT22;5555;59.622;16.556;2023-07-09T04:42:14;16.60;99.90
11005;DHT22;5555;59.622;16.556;2023-07-09T04:44:40;16.80;99.90
11005;DHT22;5555;59.622;16.556;2023-07-09T04:47:06;16.80;99.90
11005;DHT22;5555;59.622;16.556;2023-07-09T04:49:32;16.80;99.90
11005;DHT22;5555;59.622;16.556;2023-07-09T04:51:58;16.90;99.90
11005;DHT22;5555;59.622;16.556;2023-07-09T04:54:25;17.00;99.90
11005;DHT22;5555;59.622;16.556;2023-07-09T04:56:50;17.10;99.90
11005;DHT22;5555;59.622;16.556;2023-07-09T04:59:16;17.20;99.90
11005;DHT22;5555;59.622;16.556;2023-07-09T05:01:42;17.30;99.90
11005;DHT22;5555;59.622;16.556;2023-07-09T05:04:07;17.40;99.90
11005;DHT22;5555;59.622;16.556;2023-07-09T05:06:34;17.40;99.90
11005;DHT22;5555;59.622;16.556;2023-07-09T05:09:00;17.40;99.90
11005;DHT22;5555;59.622;16.556;2023-07-09T05:11:25;17.40;99.90
11005;DHT22;5555;59.622;16.556;2023-07-09T05:13:51;17.50;99.90
11005;DHT22;5555;59.622;16.556;2023-07-09T05:16:17;17.70;99.90
11005;DHT22;5555;59.622;16.556;2023-07-09T05:18:44;17.80;99.90
11005;DHT22;5555;59.622;16.556;2023-07-09T05:21:10;17.90;99.90
11005;DHT22;5555;59.622;16.556;2023-07-09T05:23:35;18.00;99.90
11005;DHT22;5555;59.622;16.556;2023-07-09T05:26:02;18.10;99.90
11005;DHT22;5555;59.622;16.556;2023-07-09T05:28:29;18.10;99.90
11005;DHT22;5555;59.622;16.556;2023-07-09T05:30:55;18.10;99.90
11005;DHT22;5555;59.622;16.556;2023-07-09T05:33:21;18.20;99.90
11005;DHT22;5555;59.622;16.556;2023-07-09T05:35:47;18.20;99.90
11005;DHT22;5555;59.622;16.556;2023-07-09T05:38:13;18.30;99.90
11005;DHT22;5555;59.622;16.556;2023-07-09T05:40:40;18.40;99.90
11005;DHT22;5555;59.622;16.556;2023-07-09T05:43:06;18.40;99.90
11005;DHT22;5555;59.622;16.556;2023-07-09T05:45:31;18.40;99.90
11005;DHT22;5555;59.622;16.556;2023-07-09T05:47:58;18.50;99.90
11005;DHT22;5555;59.622;16.556;2023-07-09T05:50:24;18.50;99.90
11005;DHT22;5555;59.622;16.556;2023-07-09T05:52:50;18.60;99.90
11005;DHT22;5555;59.622;16.556;2023-07-09T05:55:15;18.80;99.90
11005;DHT22;5555;59.622;16.556;2023-07-09T05:57:41;19.00;99.90
11005;DHT22;5555;59.622;16.556;2023-07-09T06:00:07;19.30;99.90
11005;DHT22;5555;59.622;16.556;2023-07-09T06:02:33;19.50;99.90
11005;DHT22;5555;59.622;16.556;2023-07-09T06:04:59;19.60;99.90
11005;DHT22;5555;59.622;16.556;2023-07-09T06:07:24;19.40;99.90
11005;DHT22;5555;59.622;16.556;2023-07-09T06:09:50;19.40;99.90
11005;DHT22;5555;59.622;16.556;2023-07-09T06:12:15;19.70;99.90
11005;DHT22;5555;59.622;16.556;2023-07-09T06:14:42;19.80;99.90
11005;DHT22;5555;59.622;16.556;2023-07-09T06:17:08;19.90;99.90
11005;DHT22;5555;59.622;16.556;2023-07-09T06:19:33;20.00;99.90
11005;DHT22;5555;59.622;16.556;2023-07-09T06:21:59;20.10;99.90
11005;DHT22;5555;59.622;16.556;2023-07-09T06:24:25;20.10;99.90
11005;DHT22;5555;59.622;16.556;2023-07-09T06:26:50;20.10;99.90
11005;DHT22;5555;59.622;16.556;2023-07-09T06:29:16;20.20;99.90
11005;DHT22;5555;59.622;16.556;2023-07-09T06:31:41;20.30;99.90
11005;DHT22;5555;59.622;16.556;2023-07-09T06:34:08;20.20;99.90
11005;DHT22;5555;59.622;16.556;2023-07-09T06:36:35;20.20;99.90
11005;DHT22;5555;59.622;16.556;2023-07-09T06:39:01;20.10;99.90
11005;DHT22;5555;59.622;16.556;2023-07-09T06:41:27;20.20;99.90
11005;DHT22;5555;59.622;16.556;2023-07-09T06:43:53;20.30;99.90
11005;DHT22;5555;59.622;16.556;2023-07-09T06:46:19;20.50;99.90
11005;DHT22;5555;59.622;16.556;2023-07-09T06:48:45;20.60;99.90
11005;DHT22;5555;59.622;16.556;2023-07-09T06:51:12;20.70;99.90
11005;DHT22;5555;59.622;16.556;2023-07-09T06:53:38;20.90;99.90
11005;DHT22;5555;59.622;16.556;2023-07-09T06:56:04;20.90;99.90
11005;DHT22;5555;59.622;16.556;2023-07-09T06:58:32;20.90;99.90
11005;DHT22;5555;59.622;16.556;2023-07-09T07:01:00;20.90;99.90
11005;DHT22;5555;59.622;16.556;2023-07-09T07:03:29;20.70;99.90
11005;DHT22;5555;59.622;16.556;2023-07-09T07:05:55;20.90;99.90
11005;DHT22;5555;59.622;16.556;2023-07-09T07:08:22;21.00;99.90
11005;DHT22;5555;59.622;16.556;2023-07-09T07:10:49;20.80;99.90
11005;DHT22;5555;59.622;16.556;2023-07-09T07:13:15;20.70;99.90
11005;DHT22;5555;59.622;16.556;2023-07-09T07:15:41;20.70;99.90
11005;DHT22;5555;59.622;16.556;2023-07-09T07:18:08;20.90;99.90
11005;DHT22;5555;59.622;16.556;2023-07-09T07:20:34;21.00;99.90
11005;DHT22;5555;59.622;16.556;2023-07-09T07:23:00;21.00;99.90
11005;DHT22;5555;59.622;16.556;2023-07-09T07:25:25;21.00;99.90
11005;DHT22;5555;59.622;16.556;2023-07-09T07:27:51;21.10;99.90
11005;DHT22;5555;59.622;16.556;2023-07-09T07:30:17;21.30;99.90
11005;DHT22;5555;59.622;16.556;2023-07-09T07:32:47;21.30;99.90
11005;DHT22;5555;59.622;16.556;2023-07-09T07:35:14;21.50;99.90
11005;DHT22;5555;59.622;16.556;2023-07-09T07:37:41;21.60;99.90
11005;DHT22;5555;59.622;16.556;2023-07-09T07:40:08;21.70;99.90
11005;DHT22;5555;59.622;16.556;2023-07-09T07:42:34;21.90;99.90
11005;DHT22;5555;59.622;16.556;2023-07-09T07:45:00;21.90;99.90
11005;DHT22;5555;59.622;16.556;2023-07-09T07:47:26;22.10;99.90
11005;DHT22;5555;59.622;16.556;2023-07-09T07:49:53;22.10;99.90
11005;DHT22;5555;59.622;16.556;2023-07-09T07:52:19;22.20;99.90
11005;DHT22;5555;59.622;16.556;2023-07-09T07:54:44;22.30;99.90
11005;DHT22;5555;59.622;16.556;2023-07-09T07:57:10;22.10;99.90
11005;DHT22;5555;59.622;16.556;2023-07-09T07:59:37;22.00;99.90
11005;DHT22;5555;59.622;16.556;2023-07-09T08:02:05;21.90;99.90
11005;DHT22;5555;59.622;16.556;2023-07-09T08:04:31;22.00;99.90
11005;DHT22;5555;59.622;16.556;2023-07-09T08:06:56;22.10;99.90
11005;DHT22;5555;59.622;16.556;2023-07-09T08:09:22;22.20;99.90
11005;DHT22;5555;59.622;16.556;2023-07-09T08:11:48;22.30;99.90
11005;DHT22;5555;59.622;16.556;2023-07-09T08:14:15;22.10;99.90
11005;DHT22;5555;59.622;16.556;2023-07-09T08:16:40;22.40;99.90
11005;DHT22;5555;59.622;16.556;2023-07-09T08:19:06;22.60;99.90
11005;DHT22;5555;59.622;16.556;2023-07-09T08:21:32;22.70;99.90
11005;DHT22;5555;59.622;16.556;2023-07-09T08:23:57;22.80;99.90
11005;DHT22;5555;59.622;16.556;2023-07-09T08:26:23;22.90;99.90
11005;DHT22;5555;59.622;16.556;2023-07-09T08:28:50;23.30;99.90
11005;DHT22;5555;59.622;16.556;2023-07-09T08:31:16;23.30;99.90
11005;DHT22;5555;59.622;16.556;2023-07-09T08:33:42;23.20;99.90
11005;DHT22;5555;59.622;16.556;2023-07-09T08:36:08;23.30;99.90
11005;DHT22;5555;59.622;16.556;2023-07-09T08:38:33;23.50;99.90
11005;DHT22;5555;59.622;16.556;2023-07-09T08:41:01;23.20;99.90
11005;DHT22;5555;59.622;16.556;2023-07-09T08:43:38;23.10;99.90
11005;DHT22;5555;59.622;16.556;2023-07-09T08:49:01;23.80;99.90
11005;DHT22;5555;59.622;16.556;2023-07-09T08:51:34;24.10;99.90
11005;DHT22;5555;59.622;16.556;2023-07-09T08:54:02;23.70;99.90
11005;DHT22;5555;59.622;16.556;2023-07-09T08:56:31;23.50;99.90
11005;DHT22;5555;59.622;16.556;2023-07-09T08:59:00;23.80;99.90
11005;DHT22;5555;59.622;16.556;2023-07-09T09:01:40;23.70;99.90
11005;DHT22;5555;59.622;16.556;2023-07-09T09:04:24;23.60;99.90
11005;DHT22;5555;59.622;16.556;2023-07-09T09:09:39;23.50;99.90
11005;DHT22;5555;59.622;16.556;2023-07-09T09:12:35;23.70;99.90
11005;DHT22;5555;59.622;16.556;2023-07-09T09:15:16;23.90;99.90
11005;DHT22;5555;59.622;16.556;2023-07-09T09:17:43;24.30;99.90
11005;DHT22;5555;59.622;16.556;2023-07-09T09:20:17;24.90;99.90
11005;DHT22;5555;59.622;16.556;2023-07-09T09:27:40;24.60;99.90
11005;DHT22;5555;59.622;16.556;2023-07-09T09:30:14;24.80;99.90
11005;DHT22;5555;59.622;16.556;2023-07-09T09:32:43;24.60;99.90
11005;DHT22;5555;59.622;16.556;2023-07-09T09:35:15;24.30;99.90
11005;DHT22;5555;59.622;16.556;2023-07-09T09:37:49;24.00;99.90
11005;DHT22;5555;59.622;16.556;2023-07-09T09:40:18;23.50;99.90
11005;DHT22;5555;59.622;16.556;2023-07-09T09:42:44;23.90;99.90
11005;DHT22;5555;59.622;16.556;2023-07-09T09:45:16;24.80;99.90
11005;DHT22;5555;59.622;16.556;2023-07-09T09:47:43;25.10;99.90
11005;DHT22;5555;59.622;16.556;2023-07-09T09:50:20;24.40;99.90
11005;DHT22;5555;59.622;16.556;2023-07-09T09:52:48;25.30;99.90
11005;DHT22;5555;59.622;16.556;2023-07-09T09:55:23;26.00;99.90
11005;DHT22;5555;59.622;16.556;2023-07-09T09:57:53;26.50;99.90
11005;DHT22;5555;59.622;16.556;2023-07-09T10:00:23;26.90;99.90
11005;DHT22;5555;59.622;16.556;2023-07-09T10:02:50;27.00;99.90
11005;DHT22;5555;59.622;16.556;2023-07-09T10:05:31;26.70;99.90
11005;DHT22;5555;59.622;16.556;2023-07-09T10:08:06;26.10;99.90
11005;DHT22;5555;59.622;16.556;2023-07-09T10:10:33;25.60;99.90
11005;DHT22;5555;59.622;16.556;2023-07-09T10:13:24;24.80;99.90
11005;DHT22;5555;59.622;16.556;2023-07-09T10:18:53;25.50;99.90
11005;DHT22;5555;59.622;16.556;2023-07-09T10:32:33;24.80;99.90
11005;DHT22;5555;59.622;16.556;2023-07-09T10:35:18;24.80;99.90
11005;DHT22;5555;59.622;16.556;2023-07-09T10:40:30;24.20;99.90
11005;DHT22;5555;59.622;16.556;2023-07-09T10:43:00;24.00;99.90
11005;DHT22;5555;59.622;16.556;2023-07-09T10:45:34;24.10;99.90
11005;DHT22;5555;59.622;16.556;2023-07-09T10:48:26;24.20;99.90
11005;DHT22;5555;59.622;16.556;2023-07-09T10:50:56;24.90;99.90
11005;DHT22;5555;59.622;16.556;2023-07-09T10:53:44;25.80;99.90
11005;DHT22;5555;59.622;16.556;2023-07-09T10:56:13;26.30;99.90
11005;DHT22;5555;59.622;16.556;2023-07-09T11:01:15;25.90;99.90
11005;DHT22;5555;59.622;16.556;2023-07-09T11:03:59;26.50;99.90
11005;DHT22;5555;59.622;16.556;2023-07-09T11:06:37;27.70;99.90
11005;DHT22;5555;59.622;16.556;2023-07-09T11:09:14;27.90;99.90
11005;DHT22;5555;59.622;16.556;2023-07-09T11:11:49;28.40;99.90
11005;DHT22;5555;59.622;16.556;2023-07-09T11:14:33;28.00;99.90
11005;DHT22;5555;59.622;16.556;2023-07-09T11:16:59;27.80;99.90
11005;DHT22;5555;59.622;16.556;2023-07-09T11:19:26;27.40;99.90
11005;DHT22;5555;59.622;16.556;2023-07-09T11:22:15;27.20;99.90
11005;DHT22;5555;59.622;16.556;2023-07-09T11:25:06;27.60;99.90
11005;DHT22;5555;59.622;16.556;2023-07-09T11:27:32;28.50;99.90
11005;DHT22;5555;59.622;16.556;2023-07-09T11:30:15;29.30;99.90
11005;DHT22;5555;59.622;16.556;2023-07-09T11:32:47;29.60;99.90
11005;DHT22;5555;59.622;16.556;2023-07-09T11:35:23;29.50;99.90
11005;DHT22;5555;59.622;16.556;2023-07-09T11:37:49;28.10;99.90
11005;DHT22;5555;59.622;16.556;2023-07-09T11:40:16;27.30;99.90
11005;DHT22;5555;59.622;16.556;2023-07-09T11:42:53;26.70;99.90
11005;DHT22;5555;59.622;16.556;2023-07-09T11:45:32;25.90;99.90
11005;DHT22;5555;59.622;16.556;2023-07-09T11:50:49;25.30;99.90
11005;DHT22;5555;59.622;16.556;2023-07-09T11:53:34;25.20;99.90
11005;DHT22;5555;59.622;16.556;2023-07-09T11:56:02;25.50;99.90
11005;DHT22;5555;59.622;16.556;2023-07-09T11:58:28;25.40;99.90
11005;DHT22;5555;59.622;16.556;2023-07-09T12:00:58;26.10;99.90
11005;DHT22;5555;59.622;16.556;2023-07-09T12:03:25;27.70;99.90
11005;DHT22;5555;59.622;16.556;2023-07-09T12:05:53;28.60;99.90
11005;DHT22;5555;59.622;16.556;2023-07-09T12:08:39;29.50;99.90
11005;DHT22;5555;59.622;16.556;2023-07-09T12:11:06;29.90;99.90
11005;DHT22;5555;59.622;16.556;2023-07-09T12:13:38;30.50;99.90
11005;DHT22;5555;59.622;16.556;2023-07-09T12:16:04;30.20;99.90
11005;DHT22;5555;59.622;16.556;2023-07-09T12:18:43;30.30;99.90
11005;DHT22;5555;59.622;16.556;2023-07-09T12:21:09;30.50;99.90
11005;DHT22;5555;59.622;16.556;2023-07-09T12:23:35;30.20;99.90
11005;DHT22;5555;59.622;16.556;2023-07-09T12:26:03;30.60;99.70
11005;DHT22;5555;59.622;16.556;2023-07-09T12:28:29;30.20;99.90
11005;DHT22;5555;59.622;16.556;2023-07-09T12:30:55;29.60;99.90
11005;DHT22;5555;59.622;16.556;2023-07-09T12:33:26;28.50;99.90
11005;DHT22;5555;59.622;16.556;2023-07-09T12:35:57;27.50;99.90
11005;DHT22;5555;59.622;16.556;2023-07-09T12:38:25;26.90;99.90
11005;DHT22;5555;59.622;16.556;2023-07-09T12:40:52;26.50;99.90
11005;DHT22;5555;59.622;16.556;2023-07-09T12:43:25;26.40;99.90
11005;DHT22;5555;59.622;16.556;2023-07-09T12:45:52;26.00;99.90
11005;DHT22;5555;59.622;16.556;2023-07-09T12:48:23;25.80;99.90
11005;DHT22;5555;59.622;16.556;2023-07-09T12:50:50;25.90;99.90
11005;DHT22;5555;59.622;16.556;2023-07-09T12:53:18;25.80;99.90
11005;DHT22;5555;59.622;16.556;2023-07-09T12:55:47;25.70;99.90
11005;DHT22;5555;59.622;16.556;2023-07-09T12:58:22;25.90;99.90
11005;DHT22;5555;59.622;16.556;2023-07-09T13:00:53;25.80;99.90
11005;DHT22;5555;59.622;16.556;2023-07-09T13:03:28;25.70;99.90
11005;DHT22;5555;59.622;16.556;2023-07-09T13:06:00;25.70;99.90
11005;DHT22;5555;59.622;16.556;2023-07-09T13:08:27;26.00;99.90
11005;DHT22;5555;59.622;16.556;2023-07-09T13:10:54;26.40;99.90
11005;DHT22;5555;59.622;16.556;2023-07-09T13:13:21;27.80;99.90
11005;DHT22;5555;59.622;16.556;2023-07-09T13:15:58;29.10;99.90
11005;DHT22;5555;59.622;16.556;2023-07-09T13:18:27;29.60;99.90
11005;DHT22;5555;59.622;16.556;2023-07-09T13:20:56;29.20;99.90
11005;DHT22;5555;59.622;16.556;2023-07-09T13:23:27;28.70;99.90
11005;DHT22;5555;59.622;16.556;2023-07-09T13:25:54;28.40;99.90
11005;DHT22;5555;59.622;16.556;2023-07-09T13:28:30;27.80;99.90
11005;DHT22;5555;59.622;16.556;2023-07-09T13:33:24;29.60;99.90
11005;DHT22;5555;59.622;16.556;2023-07-09T13:35:50;32.20;98.20
11005;DHT22;5555;59.622;16.556;2023-07-09T13:38:20;31.50;98.00
11005;DHT22;5555;59.622;16.556;2023-07-09T13:40:49;32.80;95.90
11005;DHT22;5555;59.622;16.556;2023-07-09T13:43:35;32.00;97.20
11005;DHT22;5555;59.622;16.556;2023-07-09T13:46:03;31.30;94.50
11005;DHT22;5555;59.622;16.556;2023-07-09T13:48:30;31.60;96.70
11005;DHT22;5555;59.622;16.556;2023-07-09T13:50:57;31.60;93.70
11005;DHT22;5555;59.622;16.556;2023-07-09T13:53:28;30.90;93.90
11005;DHT22;5555;59.622;16.556;2023-07-09T13:55:55;31.60;95.70
11005;DHT22;5555;59.622;16.556;2023-07-09T13:58:24;31.80;95.70
11005;DHT22;5555;59.622;16.556;2023-07-09T14:00:55;31.60;96.50
11005;DHT22;5555;59.622;16.556;2023-07-09T14:03:25;31.80;97.30
11005;DHT22;5555;59.622;16.556;2023-07-09T14:05:52;32.00;95.60
11005;DHT22;5555;59.622;16.556;2023-07-09T14:08:18;30.80;93.10
11005;DHT22;5555;59.622;16.556;2023-07-09T14:10:46;29.60;93.90
11005;DHT22;5555;59.622;16.556;2023-07-09T14:13:17;28.60;94.60
11005;DHT22;5555;59.622;16.556;2023-07-09T14:15:43;27.80;95.30
11005;DHT22;5555;59.622;16.556;2023-07-09T14:18:15;27.20;96.40
11005;DHT22;5555;59.622;16.556;2023-07-09T14:20:41;27.10;95.90
11005;DHT22;5555;59.622;16.556;2023-07-09T14:23:13;27.90;97.70
11005;DHT22;5555;59.622;16.556;2023-07-09T14:25:39;29.30;96.40
11005;DHT22;5555;59.622;16.556;2023-07-09T14:28:14;30.60;95.10
11005;DHT22;5555;59.622;16.556;2023-07-09T14:30:40;31.40;95.40
11005;DHT22;5555;59.622;16.556;2023-07-09T14:33:16;30.90;93.70
11005;DHT22;5555;59.622;16.556;2023-07-09T14:35:43;31.00;94.60
11005;DHT22;5555;59.622;16.556;2023-07-09T14:38:23;31.60;96.20
11005;DHT22;5555;59.622;16.556;2023-07-09T14:40:52;31.20;94.50
11005;DHT22;5555;59.622;16.556;2023-07-09T14:43:18;30.20;95.70
11005;DHT22;5555;59.622;16.556;2023-07-09T14:45:43;29.50;96.00
11005;DHT22;5555;59.622;16.556;2023-07-09T14:48:15;28.80;95.70
11005;DHT22;5555;59.622;16.556;2023-07-09T14:50:41;28.80;96.30
11005;DHT22;5555;59.622;16.556;2023-07-09T14:53:27;29.90;94.40
11005;DHT22;5555;59.622;16.556;2023-07-09T14:55:54;30.60;95.60
11005;DHT22;5555;59.622;16.556;2023-07-09T14:58:21;31.60;94.90
11005;DHT22;5555;59.622;16.556;2023-07-09T15:00:48;30.90;94.00
11005;DHT22;5555;59.622;16.556;2023-07-09T15:03:25;31.10;94.30
11005;DHT22;5555;59.622;16.556;2023-07-09T15:05:52;30.80;93.20
11005;DHT22;5555;59.622;16.556;2023-07-09T15:08:21;31.30;94.40
11005;DHT22;5555;59.622;16.556;2023-07-09T15:10:48;31.20;94.20
11005;DHT22;5555;59.622;16.556;2023-07-09T15:13:29;31.30;94.40
11005;DHT22;5555;59.622;16.556;2023-07-09T15:15:57;31.30;93.10
11005;DHT22;5555;59.622;16.556;2023-07-09T15:18:22;31.30;92.10
11005;DHT22;5555;59.622;16.556;2023-07-09T15:21:08;32.20;92.60
11005;DHT22;5555;59.622;16.556;2023-07-09T15:23:40;31.80;91.30
11005;DHT22;5555;59.622;16.556;2023-07-09T15:26:14;31.30;92.50
11005;DHT22;5555;59.622;16.556;2023-07-09T15:28:40;32.10;92.60
11005;DHT22;5555;59.622;16.556;2023-07-09T15:31:10;32.40;93.40
11005;DHT22;5555;59.622;16.556;2023-07-09T15:33:36;32.60;93.80
11005;DHT22;5555;59.622;16.556;2023-07-09T15:36:10;33.20;91.40
11005;DHT22;5555;59.622;16.556;2023-07-09T15:38:36;32.80;92.40
11005;DHT22;5555;59.622;16.556;2023-07-09T15:41:11;32.10;92.90
11005;DHT22;5555;59.622;16.556;2023-07-09T15:43:37;32.50;91.30
11005;DHT22;5555;59.622;16.556;2023-07-09T15:46:03;33.20;90.80
11005;DHT22;5555;59.622;16.556;2023-07-09T15:48:36;32.10;91.70
11005;DHT22;5555;59.622;16.556;2023-07-09T15:51:03;32.30;91.40
11005;DHT22;5555;59.622;16.556;2023-07-09T15:53:29;33.10;90.40
11005;DHT22;5555;59.622;16.556;2023-07-09T15:56:00;33.80;90.80
11005;DHT22;5555;59.622;16.556;2023-07-09T15:58:33;34.00;88.80
11005;DHT22;5555;59.622;16.556;2023-07-09T16:01:01;33.50;89.60
11005;DHT22;5555;59.622;16.556;2023-07-09T16:03:26;33.40;87.40
11005;DHT22;5555;59.622;16.556;2023-07-09T16:05:52;33.50;89.70
11005;DHT22;5555;59.622;16.556;2023-07-09T16:08:18;33.60;88.70
11005;DHT22;5555;59.622;16.556;2023-07-09T16:10:43;32.70;87.40
11005;DHT22;5555;59.622;16.556;2023-07-09T16:13:25;32.80;89.40
11005;DHT22;5555;59.622;16.556;2023-07-09T16:15:51;32.90;88.20
11005;DHT22;5555;59.622;16.556;2023-07-09T16:18:18;32.70;86.90
11005;DHT22;5555;59.622;16.556;2023-07-09T16:20:44;32.80;86.50
11005;DHT22;5555;59.622;16.556;2023-07-09T16:23:17;32.90;88.60